Time;durP1;ratioP1;P1;durP2;ratioP2;P2;SDS_P1;SDS_P2;PMS_P1;PMS_P2;Temp;Humidity;BMP_temperature;BMP_pressure;BME280_temperature;BME280_humidity;BME280_pressure;Samples;Min_cycle;Max_cycle;Signal;HPM_P1;HPM_P2
2022/09/24 00:01:28;;;;;;;13.88;10.32;;;;;;;12.04;100.00;96427.94;5033640;28;20115;-64
2022/09/24 00:04:00;;;;;;;15.82;10.68;;;;;;;12.13;100.00;96424.88;5034384;28;20103;-66
2022/09/24 00:06:27;;;;;;;13.13;10.80;;;;;;;12.15;100.00;96419.00;5032636;28;20549;-65
2022/09/24 00:08:56;;;;;;;14.30;10.32;;;;;;;12.08;100.00;96411.50;5033069;28;20040;-65
2022/09/24 00:11:24;;;;;;;16.90;11.27;;;;;;;12.00;100.00;96415.41;5033980;28;20517;-65
2022/09/24 00:13:51;;;;;;;15.18;10.55;;;;;;;12.01;100.00;96411.47;5032211;28;20400;-65
2022/09/24 00:16:19;;;;;;;15.07;11.00;;;;;;;12.04;100.00;96413.44;5033148;28;20079;-67
2022/09/24 00:18:44;;;;;;;16.42;10.40;;;;;;;12.07;100.00;96412.69;5032529;28;20049;-65
2022/09/24 00:21:16;;;;;;;13.40;10.82;;;;;;;11.98;100.00;96404.78;5031262;28;20034;-65
2022/09/24 00:23:42;;;;;;;15.77;10.70;;;;;;;11.84;100.00;96399.19;5033602;28;20138;-65
2022/09/24 00:28:54;;;;;;;14.57;11.60;;;;;;;11.55;100.00;96404.47;5033931;28;20113;-66
2022/09/24 00:31:19;;;;;;;14.55;11.88;;;;;;;11.59;100.00;96399.78;5036264;28;20114;-65
2022/09/24 00:33:44;;;;;;;18.05;11.45;;;;;;;11.66;100.00;96393.56;5035401;28;20483;-64
2022/09/24 00:36:10;;;;;;;17.55;11.15;;;;;;;11.77;100.00;96399.13;5032409;28;20025;-65
2022/09/24 00:38:35;;;;;;;18.35;11.18;;;;;;;11.83;100.00;96387.44;5034968;28;20029;-65
2022/09/24 00:41:01;;;;;;;13.32;10.77;;;;;;;12.02;100.00;96391.09;5035763;28;20478;-66
2022/09/24 00:43:36;;;;;;;13.85;10.63;;;;;;;12.04;100.00;96400.50;5036426;28;20040;-66
2022/09/24 00:46:13;;;;;;;16.13;10.55;;;;;;;12.06;100.00;96394.63;5035981;28;20033;-64
2022/09/24 00:48:41;;;;;;;12.85;9.50;;;;;;;12.04;100.00;96402.47;5036225;28;20406;-65
2022/09/24 00:51:08;;;;;;;13.88;9.90;;;;;;;12.10;100.00;96397.41;5032888;28;20548;-66
2022/09/24 00:53:35;;;;;;;12.07;9.30;;;;;;;12.18;100.00;96399.03;5031326;28;20044;-65
2022/09/24 00:56:01;;;;;;;17.00;9.93;;;;;;;12.13;100.00;96402.13;5035300;28;20026;-66
2022/09/24 00:58:32;;;;;;;13.32;9.65;;;;;;;12.19;100.00;96397.84;5033752;28;20474;-65
2022/09/24 01:01:03;;;;;;;13.00;10.30;;;;;;;11.88;100.00;96383.53;5036308;28;20105;-65
2022/09/24 01:03:31;;;;;;;13.88;9.93;;;;;;;11.81;100.00;96378.00;5036399;28;20570;-67
2022/09/24 01:05:57;;;;;;;14.20;10.73;;;;;;;11.70;100.00;96366.94;5035372;28;20408;-64
2022/09/24 01:08:23;;;;;;;16.77;10.05;;;;;;;11.63;100.00;96359.47;5036356;28;20095;-65
2022/09/24 01:11:04;;;;;;;21.08;11.20;;;;;;;11.62;100.00;96351.63;5037154;28;20041;-65
2022/09/24 01:14:04;;;;;;;14.20;11.35;;;;;;;11.54;100.00;96342.56;5037596;28;20033;-64
2022/09/24 01:16:39;;;;;;;17.98;11.75;;;;;;;11.47;100.00;96331.53;5032986;28;20037;-65
2022/09/24 01:19:22;;;;;;;15.88;11.32;;;;;;;11.40;100.00;96336.97;5038106;28;20037;-64
2022/09/24 01:21:56;;;;;;;16.00;12.13;;;;;;;11.32;100.00;96325.16;5035407;28;20065;-67
2022/09/24 01:24:39;;;;;;;16.33;11.15;;;;;;;11.29;100.00;96328.69;5026576;28;20486;-66
2022/09/24 01:27:38;;;;;;;17.58;12.07;;;;;;;11.31;100.00;96331.81;5034794;28;20037;-66
2022/09/24 01:30:10;;;;;;;16.53;12.10;;;;;;;11.27;100.00;96328.25;5036053;28;20084;-66
2022/09/24 01:32:42;;;;;;;17.00;12.55;;;;;;;11.29;100.00;96329.44;5037899;28;20032;-65
2022/09/24 01:35:27;;;;;;;20.38;13.02;;;;;;;11.23;100.00;96324.69;5036780;28;20470;-65
2022/09/24 01:38:01;;;;;;;16.33;11.80;;;;;;;11.28;100.00;96321.59;5036478;28;20029;-66
2022/09/24 01:40:29;;;;;;;20.00;11.57;;;;;;;11.30;100.00;96322.00;5034594;28;20455;-66
2022/09/24 01:42:57;;;;;;;21.65;12.18;;;;;;;11.34;100.00;96330.25;5033522;28;20030;-66
2022/09/24 01:45:25;;;;;;;16.50;11.90;;;;;;;11.36;100.00;96320.50;5028142;28;20064;-66
2022/09/24 01:47:51;;;;;;;17.85;11.45;;;;;;;11.37;100.00;96324.81;5034970;28;20033;-66
2022/09/24 01:50:18;;;;;;;16.73;10.93;;;;;;;11.37;100.00;96324.81;5035847;28;20094;-66
2022/09/24 01:53:04;;;;;;;17.27;10.75;;;;;;;11.47;100.00;96337.03;5036529;28;20033;-66
2022/09/24 01:55:37;;;;;;;16.85;10.02;;;;;;;11.53;100.00;96340.19;5010060;28;20033;-65
2022/09/24 01:58:20;;;;;;;18.15;10.63;;;;;;;11.53;100.00;96332.75;5034950;28;20051;-66
2022/09/24 02:00:50;;;;;;;14.20;9.10;;;;;;;11.58;100.00;96339.84;5035144;28;20029;-66
2022/09/24 02:03:30;;;;;;;12.98;10.18;;;;;;;11.50;100.00;96339.00;5034077;28;20116;-65
2022/09/24 02:06:04;;;;;;;19.80;10.35;;;;;;;11.43;100.00;96333.47;5035460;28;20120;-65
2022/09/24 02:08:35;;;;;;;12.32;9.40;;;;;;;11.42;100.00;96337.38;5035407;28;20087;-67
2022/09/24 02:11:13;;;;;;;15.23;9.80;;;;;;;11.38;100.00;96331.88;5034859;28;20041;-66
2022/09/24 02:14:03;;;;;;;13.50;9.88;;;;;;;11.38;100.00;96334.63;5034455;28;20426;-66
2022/09/24 02:16:33;;;;;;;13.90;9.15;;;;;;;11.45;100.00;96351.13;5034541;28;20032;-64
2022/09/24 02:19:04;;;;;;;12.13;9.20;;;;;;;11.64;100.00;96373.97;5034031;28;20037;-65
2022/09/24 02:21:32;;;;;;;13.63;9.15;;;;;;;11.80;100.00;96379.94;5035447;28;20029;-62
2022/09/24 02:24:12;;;;;;;15.80;8.88;;;;;;;11.94;100.00;96398.50;5027721;28;20083;-64
2022/09/24 02:26:38;;;;;;;18.00;10.73;;;;;;;11.77;100.00;96393.66;5035891;28;20021;-65
2022/09/24 02:29:04;;;;;;;22.17;11.68;;;;;;;11.69;100.00;96389.28;5017377;28;20029;-65
2022/09/24 02:31:34;;;;;;;23.25;12.23;;;;;;;11.60;100.00;96387.66;5036062;28;20726;-65
2022/09/24 02:34:20;;;;;;;;;;;;;;;11.83;100.00;96387.44;5036723;28;20033;-66
2022/09/24 02:36:50;;;;;;;18.48;10.60;;;;;;;11.98;100.00;96380.09;5040324;28;19909;-66
2022/09/24 02:39:17;;;;;;;15.05;10.55;;;;;;;11.80;100.00;96374.47;5038704;28;20056;-67
2022/09/24 02:41:46;;;;;;;15.20;10.18;;;;;;;12.03;100.00;96368.75;5039644;28;20044;-66
2022/09/24 02:44:15;;;;;;;18.92;11.05;;;;;;;11.70;100.00;96361.47;5035012;28;20065;-67
2022/09/24 02:46:42;;;;;;;20.65;11.48;;;;;;;11.43;100.00;96358.94;5034937;28;20075;-65
2022/09/24 02:49:08;;;;;;;17.48;11.77;;;;;;;11.45;100.00;96347.56;5034926;28;20029;-65
2022/09/24 02:51:34;;;;;;;16.63;12.60;;;;;;;11.41;100.00;96344.81;5034967;28;20029;-64
2022/09/24 02:54:00;;;;;;;22.08;12.63;;;;;;;11.30;100.00;96338.47;5033545;28;20106;-64
2022/09/24 02:56:27;;;;;;;20.08;13.40;;;;;;;11.20;100.00;96325.44;5033875;28;20029;-66
2022/09/24 02:58:53;;;;;;;21.17;15.35;;;;;;;11.07;100.00;96312.06;5033885;28;20100;-66
2022/09/24 03:01:19;;;;;;;25.50;14.65;;;;;;;11.06;100.00;96301.47;5034329;28;20119;-67
2022/09/24 03:03:45;;;;;;;25.00;15.30;;;;;;;11.04;100.00;96301.06;5034002;28;20110;-67
2022/09/24 03:06:13;;;;;;;25.38;15.68;;;;;;;11.04;100.00;96288.16;5033457;28;20160;-67
2022/09/24 03:08:41;;;;;;;23.67;16.30;;;;;;;11.08;100.00;96288.19;5033165;28;20037;-67
2022/09/24 03:11:09;;;;;;;22.38;16.23;;;;;;;11.12;100.00;96285.47;5034739;28;20032;-66
2022/09/24 03:13:34;;;;;;;27.02;16.60;;;;;;;11.08;100.00;96286.22;5033184;28;20041;-65
2022/09/24 03:16:00;;;;;;;21.25;15.95;;;;;;;11.12;100.00;96283.50;5034310;28;20461;-67
2022/09/24 03:18:26;;;;;;;21.08;15.65;;;;;;;11.16;100.00;96295.28;5034533;28;20030;-67
2022/09/24 03:21:00;;;;;;;29.05;16.45;;;;;;;11.12;100.00;96282.72;5028223;28;20037;-66
2022/09/24 03:23:26;;;;;;;23.45;17.15;;;;;;;11.11;100.00;96287.44;5026953;28;20051;-66
2022/09/24 03:25:53;;;;;;;30.55;18.52;;;;;;;11.12;100.00;96288.97;5034953;28;20026;-66
2022/09/24 03:28:19;;;;;;;24.95;17.50;;;;;;;11.15;100.00;96290.97;5033676;28;20029;-65
2022/09/24 03:30:59;;;;;;;21.75;16.63;;;;;;;11.20;100.00;96279.66;5034751;28;20100;-65
2022/09/24 03:33:43;;;;;;;26.73;16.05;;;;;;;11.27;100.00;96292.59;5034273;28;20037;-65
2022/09/24 03:36:11;;;;;;;22.50;15.57;;;;;;;11.37;100.00;96294.63;5033650;28;20037;-66
2022/09/24 03:38:38;;;;;;;23.63;16.02;;;;;;;11.36;100.00;96298.56;5034022;28;20037;-66
2022/09/24 03:41:06;;;;;;;22.67;15.10;;;;;;;11.54;100.00;96308.84;5033921;28;20025;-66
2022/09/24 03:43:32;;;;;;;18.73;14.25;;;;;;;11.65;100.00;96307.75;5050999;28;20075;-67
2022/09/24 03:45:58;;;;;;;18.27;13.40;;;;;;;11.75;100.00;96305.44;5033114;28;20038;-66
2022/09/24 03:48:25;;;;;;;18.90;13.60;;;;;;;11.79;100.00;96303.50;5034567;28;20386;-64
2022/09/24 03:50:52;;;;;;;20.15;14.45;;;;;;;11.80;100.00;96302.34;5034440;28;20060;-66
2022/09/24 03:53:17;;;;;;;20.42;13.70;;;;;;;11.70;100.00;96301.09;5035980;28;20041;-66
2022/09/24 03:55:53;;;;;;;24.75;14.32;;;;;;;11.72;100.00;96300.72;5033443;28;20029;-68
2022/09/24 03:58:18;;;;;;;20.77;14.25;;;;;;;11.65;100.00;96302.28;5034289;28;20030;-65
2022/09/24 04:00:44;;;;;;;17.88;13.23;;;;;;;11.65;100.00;96299.53;5033946;28;20061;-66
2022/09/24 04:03:10;;;;;;;24.20;15.23;;;;;;;11.49;100.00;96290.81;5032397;28;20522;-65
2022/09/24 04:05:36;;;;;;;21.48;14.60;;;;;;;11.32;100.00;96275.03;5034822;28;20040;-66
2022/09/24 04:08:02;;;;;;;25.52;16.77;;;;;;;11.16;100.00;96273.34;5036236;28;20029;-65
2022/09/24 04:10:28;;;;;;;30.33;16.95;;;;;;;11.09;100.00;96274.09;5038635;28;20033;-65
2022/09/24 04:12:54;;;;;;;20.02;15.48;;;;;;;11.21;100.00;96274.94;5038403;28;20161;-66
2022/09/24 04:15:20;;;;;;;24.63;15.65;;;;;;;11.40;100.00;96276.66;5037209;28;20243;-67
2022/09/24 04:17:54;;;;;;;19.45;14.45;;;;;;;11.51;100.00;96276.72;5036505;28;20034;-66
2022/09/24 04:20:21;;;;;;;22.40;16.25;;;;;;;11.49;100.00;96271.63;5034512;28;20067;-66
2022/09/24 04:22:51;;;;;;;21.58;16.38;;;;;;;11.57;100.00;96259.50;5033734;28;20025;-66
2022/09/24 04:25:17;;;;;;;22.95;15.63;;;;;;;11.39;100.00;96264.88;5036465;28;20548;-66
2022/09/24 04:27:43;;;;;;;23.35;16.25;;;;;;;11.13;100.00;96257.69;5036724;28;20034;-67
2022/09/24 04:30:11;;;;;;;24.80;17.45;;;;;;;10.99;100.00;96260.31;5028512;28;20033;-66
2022/09/24 04:32:37;;;;;;;27.42;19.05;;;;;;;10.96;100.00;96258.31;5037994;28;20025;-66
2022/09/24 04:35:03;;;;;;;26.55;20.08;;;;;;;10.97;100.00;96260.69;5037777;28;20133;-66
2022/09/24 04:37:30;;;;;;;30.60;20.65;;;;;;;10.99;100.00;96263.06;5037276;28;20036;-66
2022/09/24 04:39:55;;;;;;;28.10;20.48;;;;;;;11.01;100.00;96277.16;5036349;28;20116;-68
2022/09/24 04:42:21;;;;;;;30.23;21.20;;;;;;;11.05;100.00;96276.00;5035406;28;20125;-66
2022/09/24 04:44:47;;;;;;;27.20;20.38;;;;;;;11.03;100.00;96266.59;5037349;28;20044;-66
2022/09/24 04:47:16;;;;;;;28.40;20.58;;;;;;;11.01;100.00;96266.19;5036758;28;20033;-66
2022/09/24 04:49:44;;;;;;;33.30;21.88;;;;;;;11.00;100.00;96267.34;5037068;28;20386;-67
2022/09/24 04:52:16;;;;;;;27.73;20.20;;;;;;;11.04;100.00;96270.94;5037612;28;20084;-67
2022/09/24 04:54:46;;;;;;;26.70;19.02;;;;;;;11.07;100.00;96275.63;5036237;28;20037;-67
2022/09/24 04:57:15;;;;;;;28.58;19.63;;;;;;;11.14;100.00;96272.94;5036503;28;20022;-66
2022/09/24 04:59:42;;;;;;;25.63;18.57;;;;;;;11.26;100.00;96283.59;5037204;28;20021;-65
2022/09/24 05:02:07;;;;;;;24.52;18.00;;;;;;;11.40;100.00;96290.38;5035010;28;20033;-66
2022/09/24 05:04:36;;;;;;;26.13;18.27;;;;;;;11.40;100.00;96288.41;5037605;28;20030;-67
2022/09/24 05:07:03;;;;;;;25.67;18.33;;;;;;;11.42;100.00;96293.50;5037956;28;20151;-67
2022/09/24 05:09:30;;;;;;;24.95;17.52;;;;;;;11.58;100.00;96285.78;5037744;28;20030;-67
2022/09/24 05:11:55;;;;;;;29.73;16.25;;;;;;;11.72;100.00;96295.25;5038228;28;20214;-66
2022/09/24 05:14:21;;;;;;;21.98;16.30;;;;;;;11.80;100.00;96297.63;5037067;28;20632;-66
2022/09/24 05:16:46;;;;;;;19.48;15.05;;;;;;;11.86;100.00;96304.31;5036715;28;20030;-66
2022/09/24 05:19:12;;;;;;;18.38;14.40;;;;;;;11.90;100.00;96309.03;5033679;28;20449;-67
2022/09/24 05:21:37;;;;;;;17.70;13.77;;;;;;;11.94;100.00;96304.38;5037057;28;20029;-67
2022/09/24 05:24:03;;;;;;;18.58;13.43;;;;;;;11.97;100.00;96309.88;5036787;28;20111;-66
2022/09/24 05:29:12;;;;;;;18.67;13.00;;;;;;;12.04;100.00;96307.19;5036058;28;20036;-67
2022/09/24 05:31:38;;;;;;;20.17;14.30;;;;;;;11.90;100.00;96306.31;5038048;28;20105;-67
2022/09/24 05:34:04;;;;;;;15.40;11.75;;;;;;;11.85;100.00;96310.22;5042884;28;20037;-67
2022/09/24 05:36:30;;;;;;;20.10;13.45;;;;;;;11.95;100.00;96312.22;5019940;28;20397;-67
2022/09/24 05:38:55;;;;;;;18.13;13.75;;;;;;;12.02;100.00;96316.97;5038001;28;20384;-67
2022/09/24 05:41:21;;;;;;;19.25;14.38;;;;;;;12.05;100.00;96313.47;5051869;28;20032;-67
2022/09/24 05:43:46;;;;;;;20.00;14.65;;;;;;;11.99;100.00;96309.50;5037807;28;20033;-66
2022/09/24 05:46:12;;;;;;;17.63;13.93;;;;;;;12.00;100.00;96317.38;5035520;28;20037;-66
2022/09/24 05:48:38;;;;;;;18.98;14.07;;;;;;;12.05;100.00;96314.25;5033110;28;20112;-66
2022/09/24 05:51:04;;;;;;;17.48;13.40;;;;;;;12.06;100.00;96323.25;5035701;28;20057;-66
2022/09/24 05:53:30;;;;;;;18.38;13.73;;;;;;;12.13;100.00;96323.28;5037457;28;20061;-66
2022/09/24 05:55:57;;;;;;;21.65;13.30;;;;;;;12.14;100.00;96324.09;5037709;28;20048;-67
2022/09/24 05:58:23;;;;;;;16.30;13.27;;;;;;;12.17;100.00;96326.88;5037430;28;20199;-67
2022/09/24 06:00:50;;;;;;;19.35;13.68;;;;;;;12.04;100.00;96329.13;5036245;28;20041;-67
2022/09/24 06:03:17;;;;;;;17.52;13.80;;;;;;;12.09;100.00;96327.22;5036497;28;20060;-70
2022/09/24 06:05:47;;;;;;;17.27;12.93;;;;;;;12.12;100.00;96340.16;5037486;28;20033;-67
2022/09/24 06:08:14;;;;;;;17.27;12.68;;;;;;;12.13;100.00;96347.22;5035901;28;20037;-67
2022/09/24 06:10:41;;;;;;;19.73;12.65;;;;;;;12.21;100.00;96340.59;5036085;28;20033;-67
2022/09/24 06:13:07;;;;;;;21.27;14.05;;;;;;;12.26;100.00;96342.19;5036887;28;20025;-67
2022/09/24 06:15:34;;;;;;;22.00;12.70;;;;;;;12.31;100.00;96336.31;5037904;28;20058;-67
2022/09/24 06:18:00;;;;;;;15.43;12.55;;;;;;;12.37;100.00;96343.81;5031143;28;20041;-67
2022/09/24 06:20:26;;;;;;;18.83;14.38;;;;;;;12.44;100.00;96345.75;5038906;28;20052;-67
2022/09/24 06:22:58;;;;;;;17.95;13.38;;;;;;;12.34;100.00;96338.31;5040101;28;20049;-67
2022/09/24 06:25:25;;;;;;;19.85;14.35;;;;;;;12.03;100.00;96343.28;5021913;28;20120;-67
2022/09/24 06:27:59;;;;;;;22.30;15.32;;;;;;;11.83;100.00;96342.75;5038394;28;20029;-64
2022/09/24 06:30:26;;;;;;;23.48;16.73;;;;;;;11.69;100.00;96348.16;5037057;28;20033;-67
2022/09/24 06:32:51;;;;;;;23.35;17.50;;;;;;;11.57;100.00;96344.53;5030536;28;20105;-66
2022/09/24 06:35:17;;;;;;;25.60;19.27;;;;;;;11.50;100.00;96349.97;5035658;28;20033;-65
2022/09/24 06:37:42;;;;;;;25.35;19.58;;;;;;;11.47;100.00;96353.50;5037121;28;20025;-64
2022/09/24 06:40:08;;;;;;;26.05;20.33;;;;;;;11.55;100.00;96355.09;5037043;28;20470;-66
2022/09/24 06:42:35;;;;;;;28.17;21.02;;;;;;;11.63;100.00;96362.22;5036110;28;20040;-65
2022/09/24 06:45:00;;;;;;;26.58;18.58;;;;;;;11.76;100.00;96361.91;5036255;28;20037;-65
2022/09/24 06:47:25;;;;;;;28.73;20.90;;;;;;;12.08;100.00;96356.59;5035293;28;20026;-65
2022/09/24 06:49:51;;;;;;;21.80;15.95;;;;;;;12.26;100.00;96362.19;5034829;28;20477;-69
2022/09/24 06:52:17;;;;;;;21.85;15.07;;;;;;;12.34;100.00;96354.78;5036303;28;20036;-67
2022/09/24 06:54:42;;;;;;;19.17;13.30;;;;;;;12.43;100.00;96363.44;5035181;28;20482;-65
2022/09/24 06:57:08;;;;;;;16.35;11.65;;;;;;;12.38;100.00;96358.31;5034278;28;20033;-65
2022/09/24 06:59:33;;;;;;;14.77;11.63;;;;;;;12.40;100.00;96354.00;5034413;28;20040;-65
2022/09/24 07:01:59;;;;;;;16.05;11.52;;;;;;;12.55;100.00;96360.34;5035393;28;20060;-65
2022/09/24 07:04:24;;;;;;;14.65;11.02;;;;;;;12.69;100.00;96361.53;5036455;28;20032;-66
2022/09/24 07:09:35;;;;;;;19.90;13.15;;;;;;;12.91;100.00;96362.38;5034313;28;20401;-66
2022/09/24 07:12:04;;;;;;;29.50;17.50;;;;;;;13.04;100.00;96362.81;5035042;28;20033;-66
2022/09/24 07:14:29;;;;;;;17.67;11.23;;;;;;;13.19;100.00;96373.41;5035423;28;20037;-66
2022/09/24 07:16:55;;;;;;;15.43;8.50;;;;;;;13.37;100.00;96378.16;5035397;28;20037;-66
2022/09/24 07:19:20;;;;;;;10.38;7.57;;;;;;;13.33;100.00;96374.63;5035159;28;20096;-66
2022/09/24 07:21:46;;;;;;;13.65;9.13;;;;;;;13.48;100.00;96367.94;5036135;28;20057;-66
2022/09/24 07:24:11;;;;;;;12.32;6.90;;;;;;;13.47;100.00;96365.59;5036137;28;20091;-66
2022/09/24 07:26:37;;;;;;;8.50;6.13;;;;;;;13.47;100.00;96376.59;5050916;28;20037;-66
2022/09/24 07:29:03;;;;;;;9.65;5.97;;;;;;;13.51;100.00;96374.63;5034590;28;20026;-66
2022/09/24 07:31:29;;;;;;;10.25;6.05;;;;;;;13.55;100.00;96383.66;5037122;28;20620;-66
2022/09/24 07:33:55;;;;;;;9.07;5.95;;;;;;;13.61;100.00;96379.34;5035147;28;20040;-67
2022/09/24 07:36:21;;;;;;;7.45;6.10;;;;;;;13.70;100.00;96381.69;5037644;28;20390;-66
2022/09/24 07:38:47;;;;;;;8.77;6.28;;;;;;;13.70;100.00;96381.69;5054534;28;20037;-66
2022/09/24 07:41:13;;;;;;;7.43;5.70;;;;;;;13.68;100.00;96386.81;5040683;28;20044;-66
2022/09/24 07:43:38;;;;;;;10.32;6.65;;;;;;;13.70;100.00;96381.69;5038462;28;20441;-66
2022/09/24 07:46:04;;;;;;;9.82;5.75;;;;;;;13.79;100.00;96381.28;5038493;28;20044;-65
2022/09/24 07:48:29;;;;;;;8.13;5.70;;;;;;;13.94;100.00;96380.09;5038772;28;20404;-65
2022/09/24 07:50:55;;;;;;;10.02;5.80;;;;;;;14.04;100.00;96379.25;5040132;28;20490;-64
2022/09/24 07:53:21;;;;;;;9.18;5.50;;;;;;;14.21;100.00;96380.41;5039880;28;20033;-67
2022/09/24 07:55:46;;;;;;;8.98;5.82;;;;;;;14.37;100.00;96382.72;5040362;28;20040;-67
2022/09/24 07:58:13;;;;;;;11.73;6.53;;;;;;;14.52;100.00;96384.22;5040732;28;20203;-65
2022/09/24 08:00:39;;;;;;;8.88;5.82;;;;;;;14.70;100.00;96386.16;5040651;28;20044;-66
2022/09/24 08:03:05;;;;;;;9.85;6.03;;;;;;;14.84;100.00;96388.84;5040537;28;20191;-66
2022/09/24 08:05:31;;;;;;;8.68;5.95;;;;;;;15.01;100.00;96389.13;5038377;28;20502;-65
2022/09/24 08:07:58;;;;;;;7.13;4.90;;;;;;;15.08;100.00;96397.38;5040505;28;20026;-65
2022/09/24 08:10:25;;;;;;;7.00;5.00;;;;;;;15.07;100.00;96391.06;5040187;28;20036;-67
2022/09/24 08:12:50;;;;;;;11.30;5.90;;;;;;;15.14;100.00;96379.19;5039146;28;20029;-65
2022/09/24 08:15:16;;;;;;;7.75;5.00;;;;;;;15.16;100.00;96387.88;5037860;28;20025;-65
2022/09/24 08:17:42;;;;;;;8.38;5.70;;;;;;;15.17;100.00;96389.44;5038235;28;20393;-64
2022/09/24 08:20:08;;;;;;;7.88;5.43;;;;;;;15.14;100.00;96394.97;5038999;28;20060;-66
2022/09/24 08:22:34;;;;;;;25.42;15.68;;;;;;;15.08;100.00;96383.56;5038182;28;20040;-67
2022/09/24 08:25:01;;;;;;;32.88;18.73;;;;;;;14.95;100.00;96394.28;5037811;28;20533;-66
2022/09/24 08:27:27;;;;;;;20.38;12.65;;;;;;;14.78;100.00;96397.94;5036471;28;20033;-65
2022/09/24 08:29:52;;;;;;;10.15;7.25;;;;;;;14.63;100.00;96403.50;5038254;28;20036;-65
2022/09/24 08:32:18;;;;;;;8.35;5.57;;;;;;;14.47;100.00;96403.94;5037724;28;20057;-66
2022/09/24 08:34:44;;;;;;;13.70;4.75;;;;;;;14.40;100.00;96398.44;5020477;28;20033;-66
2022/09/24 08:37:10;;;;;;;6.75;5.20;;;;;;;14.39;100.00;96401.63;5037215;28;20060;-66
2022/09/24 08:39:36;;;;;;;8.43;5.05;;;;;;;14.36;100.00;96396.91;5036558;28;20033;-66
2022/09/24 08:42:10;;;;;;;5.80;4.35;;;;;;;14.38;100.00;96398.06;5036921;28;20068;-66
2022/09/24 08:47:36;;;;;;;7.07;4.45;;;;;;;14.29;100.00;96397.69;5036247;28;20112;-67
2022/09/24 08:50:08;;;;;;;7.05;4.00;;;;;;;14.16;100.00;96394.59;5036818;28;20036;-68
2022/09/24 08:53:09;;;;;;;5.85;4.50;;;;;;;14.28;100.00;96399.69;5038585;28;20032;-68
2022/09/24 08:55:53;;;;;;;8.68;4.70;;;;;;;14.41;100.00;96396.50;5027231;28;20046;-66
2022/09/24 08:58:58;;;;;;;8.48;4.50;;;;;;;14.59;100.00;96388.97;5003911;28;20146;-65
2022/09/24 09:01:49;;;;;;;7.72;4.88;;;;;;;14.78;100.00;96395.94;5006580;28;20278;-65
2022/09/24 09:04:57;;;;;;;8.35;4.72;;;;;;;14.87;100.00;96392.75;5006553;28;20042;-66
2022/09/24 09:07:27;;;;;;;7.40;4.20;;;;;;;15.09;100.00;96393.44;5022898;28;20068;-66
2022/09/24 09:09:59;;;;;;;5.93;4.28;;;;;;;15.14;100.00;96390.22;5028105;28;20053;-66
2022/09/24 09:12:45;;;;;;;5.95;4.15;;;;;;;15.29;100.00;96397.22;5021920;28;20060;-67
2022/09/24 09:15:16;;;;;;;12.68;7.47;;;;;;;15.43;100.00;96399.09;5021668;28;20518;-66
2022/09/24 09:17:45;;;;;;;6.63;3.92;;;;;;;15.58;100.00;96394.25;5026750;28;20071;-68
2022/09/24 09:20:20;;;;;;;5.87;3.90;;;;;;;15.43;100.00;96398.31;5020939;28;20075;-66
2022/09/24 09:22:52;;;;;;;5.55;3.15;;;;;;;15.67;100.00;96394.56;5043119;28;20452;-66
2022/09/24 09:25:19;;;;;;;5.30;3.90;;;;;;;15.94;100.00;96401.47;5020848;28;20073;-66
2022/09/24 09:27:49;;;;;;;5.93;3.40;;;;;;;15.93;100.00;96397.91;5025704;28;20041;-69
2022/09/24 09:30:18;;;;;;;7.22;3.78;;;;;;;15.98;100.00;96394.69;5023749;28;20034;-66
2022/09/24 09:33:16;;;;;;;7.53;4.63;;;;;;;15.94;100.00;96391.19;5027622;28;20049;-65
2022/09/24 09:35:56;;;;;;;5.22;3.33;;;;;;;16.06;100.00;96392.66;5022280;28;20132;-66
2022/09/24 09:38:53;;;;;;;5.10;3.22;;;;;;;16.16;100.00;96400.06;5022174;28;21108;-65
2022/09/24 09:41:40;;;;;;;6.63;4.13;;;;;;;15.72;100.00;96396.13;5020438;28;20050;-65
2022/09/24 09:44:19;;;;;;;5.97;3.58;;;;;;;15.84;100.00;96398.38;5021061;28;20048;-66
2022/09/24 09:47:14;;;;;;;3.60;2.15;;;;;;;15.95;100.00;96400.25;5024275;28;20052;-67
2022/09/24 09:49:42;;;;;;;4.93;2.92;;;;;;;16.07;100.00;96396.22;5024954;28;20499;-65
2022/09/24 09:52:17;;;;;;;4.47;2.92;;;;;;;15.64;100.00;96392.59;5019101;28;20041;-66
2022/09/24 09:54:43;;;;;;;5.47;3.00;;;;;;;15.78;100.00;96388.19;5024070;28;20034;-66
2022/09/24 09:57:17;;;;;;;5.72;2.97;;;;;;;16.08;100.00;96386.72;5019328;28;20498;-65
2022/09/24 09:59:50;;;;;;;9.52;2.72;;;;;;;16.05;100.00;96391.88;5023182;28;20080;-67
2022/09/24 10:02:34;;;;;;;4.22;2.80;;;;;;;16.08;100.00;96386.72;5018327;28;20512;-67
2022/09/24 10:05:05;;;;;;;4.82;3.20;;;;;;;16.19;100.00;96396.47;5024365;28;20044;-66
2022/09/24 10:07:31;;;;;;;4.60;2.78;;;;;;;16.23;100.00;96383.41;5020619;28;20133;-66
2022/09/24 10:10:00;;;;;;;4.03;2.38;;;;;;;16.40;100.00;96398.22;5022887;28;20041;-65
2022/09/24 10:12:27;;;;;;;3.88;2.60;;;;;;;16.55;100.00;96390.53;5022510;28;20052;-65
2022/09/24 10:15:19;;;;;;;26.95;16.95;;;;;;;16.26;100.00;96392.84;5026604;28;20046;-66
2022/09/24 10:17:49;;;;;;;5.45;3.25;;;;;;;16.27;100.00;96391.66;5024566;28;20133;-66
2022/09/24 10:20:20;;;;;;;;;;;;;;;16.45;100.00;96385.91;5019690;28;20071;-65
2022/09/24 10:22:55;;;;;;;5.68;2.25;;;;;;;16.32;100.00;96391.19;5041496;28;20578;-65
2022/09/24 10:25:25;;;;;;;4.00;2.50;;;;;;;16.24;100.00;96387.75;5019347;28;20057;-65
2022/09/24 10:27:53;;;;;;;4.15;2.88;;;;;;;16.39;100.00;96380.06;5019706;28;20128;-65
2022/09/24 10:30:32;;;;;;;4.38;2.83;;;;;;;16.25;100.00;96383.00;5020114;28;20041;-64
2022/09/24 10:33:00;;;;;;;4.03;2.47;;;;;;;16.51;100.00;96383.47;5026646;28;20486;-65
2022/09/24 10:35:35;;;;;;;3.40;2.40;;;;;;;16.39;100.00;96388.34;5016701;28;20045;-64
2022/09/24 10:38:13;;;;;;;4.85;3.00;;;;;;;16.52;100.00;96382.28;5026004;28;20064;-65
2022/09/24 10:40:39;;;;;;;5.13;2.53;;;;;;;16.63;100.00;96385.69;5023956;28;20045;-64
2022/09/24 10:43:06;;;;;;;3.85;2.75;;;;;;;16.59;100.00;96382.19;5023288;28;20069;-64
2022/09/24 10:46:00;;;;;;;4.40;2.45;;;;;;;16.50;100.00;96392.97;5027869;28;20053;-66
2022/09/24 10:48:34;;;;;;;4.95;2.65;;;;;;;16.32;100.00;96388.44;5020891;28;20038;-65
2022/09/24 10:51:22;;;;;;;4.65;2.72;;;;;;;16.19;100.00;96381.88;5024468;28;20041;-66
2022/09/24 10:54:22;;;;;;;6.63;2.70;;;;;;;16.09;100.00;96385.53;5025196;28;20041;-65
2022/09/24 10:56:54;;;;;;;4.65;3.03;;;;;;;15.85;100.00;96379.84;5025536;28;20060;-66
2022/09/24 10:59:32;;;;;;;7.18;4.28;;;;;;;15.97;100.00;96384.06;5018837;28;20037;-65
2022/09/24 11:02:06;;;;;;;5.82;3.70;;;;;;;16.19;100.00;96381.88;5026914;28;20033;-66
2022/09/24 11:04:55;;;;;;;5.57;3.88;;;;;;;16.15;100.00;96389.41;5026387;28;20055;-64
2022/09/24 11:07:32;;;;;;;3.85;3.00;;;;;;;16.13;100.00;96383.50;5020253;28;20116;-66
2022/09/24 11:10:32;;;;;;;30.95;13.00;;;;;;;16.19;100.00;96387.41;5027528;28;20041;-67
2022/09/24 11:13:19;;;;;;;19.15;9.10;;;;;;;15.95;100.00;96386.44;5026799;28;20410;-64
2022/09/24 11:16:15;;;;;;;9.23;4.35;;;;;;;15.85;100.00;96383.38;5027055;28;20041;-65
2022/09/24 11:18:56;;;;;;;4.63;3.35;;;;;;;15.81;100.00;96382.66;5025260;28;20034;-65
2022/09/24 11:21:34;;;;;;;4.93;2.85;;;;;;;15.97;100.00;96381.28;5021028;28;20147;-65
2022/09/24 11:24:18;;;;;;;7.03;3.30;;;;;;;16.22;100.00;96379.09;5025221;28;20045;-64
2022/09/24 11:27:22;;;;;;;6.13;3.60;;;;;;;16.36;100.00;96378.13;5024556;28;20045;-65
2022/09/24 11:29:53;;;;;;;8.10;5.05;;;;;;;16.07;100.00;96376.88;5006505;28;20037;-66
2022/09/24 11:32:46;;;;;;;5.68;3.45;;;;;;;16.24;100.00;96375.88;5001363;28;20060;-64
2022/09/24 11:35:48;;;;;;;5.40;3.50;;;;;;;16.39;100.00;96371.78;5018395;28;20050;-65
2022/09/24 11:38:21;;;;;;;4.55;3.40;;;;;;;16.38;100.00;96372.19;5016995;28;20128;-65
2022/09/24 11:41:02;;;;;;;9.52;5.50;;;;;;;16.34;100.00;96363.16;5026359;28;20037;-65
2022/09/24 11:43:59;;;;;;;20.58;9.80;;;;;;;16.62;100.00;96362.03;5022689;28;20030;-65